sensor_id;sensor_type;location;lat;lon;timestamp;pressure;altitude;pressure_sealevel;temperature;humidity
7268;BME280;3675;43.276;27.962;2023-12-29T00:01:51;98507.66;;;8.02;59.94
7268;BME280;3675;43.276;27.962;2023-12-29T00:05:08;98505.16;;;8.00;59.95
7268;BME280;3675;43.276;27.962;2023-12-29T00:08:08;98516.47;;;7.95;60.21
7268;BME280;3675;43.276;27.962;2023-12-29T00:11:19;98519.19;;;7.89;60.34
7268;BME280;3675;43.276;27.962;2023-12-29T00:14:24;98518.59;;;7.79;60.79
7268;BME280;3675;43.276;27.962;2023-12-29T00:21:33;98533.50;;;7.68;61.57
7268;BME280;3675;43.276;27.962;2023-12-29T00:24:58;98519.06;;;7.62;61.73
7268;BME280;3675;43.276;27.962;2023-12-29T00:27:49;98523.31;;;7.63;62.08
7268;BME280;3675;43.276;27.962;2023-12-29T00:30:30;98519.00;;;7.65;62.27
7268;BME280;3675;43.276;27.962;2023-12-29T00:33:42;98517.19;;;7.69;62.14
7268;BME280;3675;43.276;27.962;2023-12-29T00:37:03;98509.59;;;7.64;62.11
7268;BME280;3675;43.276;27.962;2023-12-29T00:40:56;98508.41;;;7.76;61.81
7268;BME280;3675;43.276;27.962;2023-12-29T00:44:38;98524.47;;;7.84;61.76
7268;BME280;3675;43.276;27.962;2023-12-29T00:47:17;98522.94;;;7.79;62.30
7268;BME280;3675;43.276;27.962;2023-12-29T00:50:14;98533.88;;;7.85;62.02
7268;BME280;3675;43.276;27.962;2023-12-29T00:53:05;98512.69;;;7.76;62.28
7268;BME280;3675;43.276;27.962;2023-12-29T00:56:07;98517.84;;;7.76;61.98
7268;BME280;3675;43.276;27.962;2023-12-29T00:59:15;98512.78;;;7.73;62.33
7268;BME280;3675;43.276;27.962;2023-12-29T01:02:32;98507.59;;;7.74;61.94
7268;BME280;3675;43.276;27.962;2023-12-29T01:05:22;98509.28;;;7.75;62.22
7268;BME280;3675;43.276;27.962;2023-12-29T01:08:10;98495.75;;;7.68;62.33
7268;BME280;3675;43.276;27.962;2023-12-29T01:11:50;98490.41;;;7.75;61.97
7268;BME280;3675;43.276;27.962;2023-12-29T01:14:29;98497.25;;;7.76;62.00
7268;BME280;3675;43.276;27.962;2023-12-29T01:20:56;98494.66;;;7.77;61.16
7268;BME280;3675;43.276;27.962;2023-12-29T01:27:29;98484.22;;;7.82;60.87
7268;BME280;3675;43.276;27.962;2023-12-29T01:31:00;98468.16;;;7.74;60.44
7268;BME280;3675;43.276;27.962;2023-12-29T01:33:56;98465.50;;;7.75;60.19
7268;BME280;3675;43.276;27.962;2023-12-29T01:36:52;98468.91;;;7.77;59.23
7268;BME280;3675;43.276;27.962;2023-12-29T01:40:14;98467.00;;;7.84;58.30
7268;BME280;3675;43.276;27.962;2023-12-29T01:42:57;98459.19;;;7.87;57.16
7268;BME280;3675;43.276;27.962;2023-12-29T01:45:41;98465.81;;;7.95;56.18
7268;BME280;3675;43.276;27.962;2023-12-29T01:48:29;98453.06;;;7.91;56.21
7268;BME280;3675;43.276;27.962;2023-12-29T01:51:17;98457.97;;;8.00;55.62
7268;BME280;3675;43.276;27.962;2023-12-29T01:53:57;98457.09;;;8.01;55.65
7268;BME280;3675;43.276;27.962;2023-12-29T01:56:41;98444.47;;;7.92;54.82
7268;BME280;3675;43.276;27.962;2023-12-29T01:59:50;98438.47;;;7.91;54.49
7268;BME280;3675;43.276;27.962;2023-12-29T02:03:01;98454.44;;;8.02;53.46
7268;BME280;3675;43.276;27.962;2023-12-29T02:06:09;98449.41;;;7.98;53.02
7268;BME280;3675;43.276;27.962;2023-12-29T02:09:09;98429.84;;;7.92;52.57
7268;BME280;3675;43.276;27.962;2023-12-29T02:11:55;98440.69;;;8.03;52.26
7268;BME280;3675;43.276;27.962;2023-12-29T02:15:00;98437.09;;;8.09;51.07
7268;BME280;3675;43.276;27.962;2023-12-29T02:18:07;98434.72;;;8.01;51.08
7268;BME280;3675;43.276;27.962;2023-12-29T02:24:49;98437.66;;;8.19;49.50
7268;BME280;3675;43.276;27.962;2023-12-29T02:27:46;98411.25;;;8.12;49.21
7268;BME280;3675;43.276;27.962;2023-12-29T02:30:51;98402.56;;;8.14;49.35
7268;BME280;3675;43.276;27.962;2023-12-29T02:34:20;98406.78;;;8.17;49.40
7268;BME280;3675;43.276;27.962;2023-12-29T02:37:34;98411.66;;;8.26;48.94
7268;BME280;3675;43.276;27.962;2023-12-29T02:40:23;98412.41;;;8.31;48.89
7268;BME280;3675;43.276;27.962;2023-12-29T02:43:05;98417.47;;;8.34;48.65
7268;BME280;3675;43.276;27.962;2023-12-29T02:45:49;98413.13;;;8.36;48.17
7268;BME280;3675;43.276;27.962;2023-12-29T02:48:56;98409.72;;;8.34;47.63
7268;BME280;3675;43.276;27.962;2023-12-29T02:51:52;98414.50;;;8.46;47.30
7268;BME280;3675;43.276;27.962;2023-12-29T02:55:22;98401.72;;;8.43;47.37
7268;BME280;3675;43.276;27.962;2023-12-29T02:58:00;98405.69;;;8.53;47.05
7268;BME280;3675;43.276;27.962;2023-12-29T03:05:26;98399.53;;;8.57;47.30
7268;BME280;3675;43.276;27.962;2023-12-29T03:08:09;98409.94;;;8.54;47.38
7268;BME280;3675;43.276;27.962;2023-12-29T03:11:03;98400.56;;;8.52;47.41
7268;BME280;3675;43.276;27.962;2023-12-29T03:13:46;98395.56;;;8.47;47.69
7268;BME280;3675;43.276;27.962;2023-12-29T03:16:22;98405.69;;;8.53;48.02
7268;BME280;3675;43.276;27.962;2023-12-29T03:19:18;98394.53;;;8.53;47.23
7268;BME280;3675;43.276;27.962;2023-12-29T03:21:59;98408.88;;;8.62;47.24
7268;BME280;3675;43.276;27.962;2023-12-29T03:24:46;98405.25;;;8.67;47.37
7268;BME280;3675;43.276;27.962;2023-12-29T03:28:06;98403.50;;;8.68;47.12
7268;BME280;3675;43.276;27.962;2023-12-29T03:32:42;98394.13;;;8.65;46.96
7268;BME280;3675;43.276;27.962;2023-12-29T03:36:31;98392.03;;;8.76;46.38
7268;BME280;3675;43.276;27.962;2023-12-29T03:40:24;98400.28;;;8.87;46.67
7268;BME280;3675;43.276;27.962;2023-12-29T03:43:39;98395.31;;;8.81;46.52
7268;BME280;3675;43.276;27.962;2023-12-29T03:46:34;98391.84;;;8.82;47.02
7268;BME280;3675;43.276;27.962;2023-12-29T03:49:09;98395.41;;;8.78;47.24
7268;BME280;3675;43.276;27.962;2023-12-29T03:51:43;98397.31;;;8.73;47.64
7268;BME280;3675;43.276;27.962;2023-12-29T03:54:19;98407.72;;;8.70;48.24
7268;BME280;3675;43.276;27.962;2023-12-29T04:01:38;98408.75;;;8.65;48.75
7268;BME280;3675;43.276;27.962;2023-12-29T04:04:18;98408.78;;;8.63;49.23
7268;BME280;3675;43.276;27.962;2023-12-29T04:08:22;98408.78;;;8.63;49.46
7268;BME280;3675;43.276;27.962;2023-12-29T04:15:11;98398.25;;;8.44;49.55
7268;BME280;3675;43.276;27.962;2023-12-29T04:17:54;98406.75;;;8.46;49.23
7268;BME280;3675;43.276;27.962;2023-12-29T04:21:07;98399.00;;;8.48;48.86
7268;BME280;3675;43.276;27.962;2023-12-29T04:25:00;98410.03;;;8.51;48.74
7268;BME280;3675;43.276;27.962;2023-12-29T04:28:54;98411.84;;;8.49;48.45
7268;BME280;3675;43.276;27.962;2023-12-29T04:31:29;98413.75;;;8.43;48.45
7268;BME280;3675;43.276;27.962;2023-12-29T04:50:42;98430.75;;;8.48;48.13
7268;BME280;3675;43.276;27.962;2023-12-29T04:53:14;98416.38;;;8.41;48.48
7268;BME280;3675;43.276;27.962;2023-12-29T04:56:22;98431.66;;;8.47;48.83
7268;BME280;3675;43.276;27.962;2023-12-29T04:59:39;98430.69;;;8.50;49.04
7268;BME280;3675;43.276;27.962;2023-12-29T05:02:24;98418.91;;;8.43;49.40
7268;BME280;3675;43.276;27.962;2023-12-29T05:05:22;98424.81;;;8.46;49.82
7268;BME280;3675;43.276;27.962;2023-12-29T05:08:24;98425.00;;;8.40;49.97
7268;BME280;3675;43.276;27.962;2023-12-29T05:15:06;98437.25;;;8.32;50.55
7268;BME280;3675;43.276;27.962;2023-12-29T05:17:44;98441.53;;;8.33;50.57
7268;BME280;3675;43.276;27.962;2023-12-29T05:20:22;98441.50;;;8.35;50.71
7268;BME280;3675;43.276;27.962;2023-12-29T05:23:07;98434.78;;;8.29;50.86
7268;BME280;3675;43.276;27.962;2023-12-29T05:25:53;98440.16;;;8.22;51.20
7268;BME280;3675;43.276;27.962;2023-12-29T05:35:33;98434.16;;;8.21;51.29
7268;BME280;3675;43.276;27.962;2023-12-29T05:39:55;98418.84;;;8.17;51.64
7268;BME280;3675;43.276;27.962;2023-12-29T05:42:51;98433.25;;;8.22;51.50
7268;BME280;3675;43.276;27.962;2023-12-29T05:45:29;98431.81;;;8.13;51.81
7268;BME280;3675;43.276;27.962;2023-12-29T05:48:19;98431.81;;;8.13;51.92
7268;BME280;3675;43.276;27.962;2023-12-29T05:50:58;98422.34;;;8.14;51.92
7268;BME280;3675;43.276;27.962;2023-12-29T05:53:48;98422.53;;;8.08;52.07
7268;BME280;3675;43.276;27.962;2023-12-29T05:59:49;98417.38;;;8.08;52.38
7268;BME280;3675;43.276;27.962;2023-12-29T06:02:42;98419.91;;;8.09;52.12
7268;BME280;3675;43.276;27.962;2023-12-29T06:05:19;98419.09;;;8.07;52.08
7268;BME280;3675;43.276;27.962;2023-12-29T06:09:09;98423.16;;;8.14;52.02
7268;BME280;3675;43.276;27.962;2023-12-29T06:12:08;98429.94;;;8.19;51.99
7268;BME280;3675;43.276;27.962;2023-12-29T06:16:01;98418.72;;;8.20;51.81
7268;BME280;3675;43.276;27.962;2023-12-29T06:18:53;98433.25;;;8.22;51.81
7268;BME280;3675;43.276;27.962;2023-12-29T06:21:41;98424.47;;;8.28;51.96
7268;BME280;3675;43.276;27.962;2023-12-29T06:25:11;98414.25;;;8.26;51.81
7268;BME280;3675;43.276;27.962;2023-12-29T06:29:03;98427.63;;;8.39;51.79
7268;BME280;3675;43.276;27.962;2023-12-29T06:32:00;98430.16;;;8.40;52.03
7268;BME280;3675;43.276;27.962;2023-12-29T06:34:56;98433.63;;;8.39;52.17
7268;BME280;3675;43.276;27.962;2023-12-29T06:37:53;98432.75;;;8.40;52.12
7268;BME280;3675;43.276;27.962;2023-12-29T06:41:06;98433.41;;;8.45;52.05
7268;BME280;3675;43.276;27.962;2023-12-29T06:44:11;98441.00;;;8.50;51.99
7268;BME280;3675;43.276;27.962;2023-12-29T06:46:57;98430.69;;;8.50;51.98
7268;BME280;3675;43.276;27.962;2023-12-29T06:50:11;98437.25;;;8.60;51.97
7268;BME280;3675;43.276;27.962;2023-12-29T06:53:12;98432.84;;;8.64;52.32
7268;BME280;3675;43.276;27.962;2023-12-29T06:55:57;98440.38;;;8.70;52.64
7268;BME280;3675;43.276;27.962;2023-12-29T06:58:34;98437.72;;;8.73;52.77
7268;BME280;3675;43.276;27.962;2023-12-29T07:01:22;98433.50;;;8.70;52.50
7268;BME280;3675;43.276;27.962;2023-12-29T07:04:19;98431.56;;;8.77;52.45
7268;BME280;3675;43.276;27.962;2023-12-29T07:07:23;98432.19;;;8.85;52.70
7268;BME280;3675;43.276;27.962;2023-12-29T07:10:33;98432.81;;;8.91;52.75
7268;BME280;3675;43.276;27.962;2023-12-29T07:13:38;98446.41;;;8.96;53.05
7268;BME280;3675;43.276;27.962;2023-12-29T07:16:17;98450.44;;;9.03;52.96
7268;BME280;3675;43.276;27.962;2023-12-29T07:19:25;98434.88;;;9.07;53.23
7268;BME280;3675;43.276;27.962;2023-12-29T07:22:15;98442.31;;;9.16;53.44
7268;BME280;3675;43.276;27.962;2023-12-29T07:25:11;98438.81;;;9.17;53.69
7268;BME280;3675;43.276;27.962;2023-12-29T07:28:16;98443.78;;;9.23;54.39
7268;BME280;3675;43.276;27.962;2023-12-29T07:32:39;98443.50;;;9.30;54.60
7268;BME280;3675;43.276;27.962;2023-12-29T07:34:51;98441.47;;;9.40;54.13
7268;BME280;3675;43.276;27.962;2023-12-29T07:37:27;98451.34;;;9.52;53.62
7268;BME280;3675;43.276;27.962;2023-12-29T07:40:45;98443.25;;;9.63;52.26
7268;BME280;3675;43.276;27.962;2023-12-29T07:44:08;98447.25;;;9.71;52.54
7268;BME280;3675;43.276;27.962;2023-12-29T07:47:03;98444.38;;;9.79;52.67
7268;BME280;3675;43.276;27.962;2023-12-29T07:49:46;98455.16;;;9.90;52.62
7268;BME280;3675;43.276;27.962;2023-12-29T07:52:42;98447.13;;;9.98;51.79
7268;BME280;3675;43.276;27.962;2023-12-29T07:55:58;98439.22;;;10.02;51.38
7268;BME280;3675;43.276;27.962;2023-12-29T07:59:11;98439.41;;;10.21;50.60
7268;BME280;3675;43.276;27.962;2023-12-29T08:02:28;98434.56;;;10.35;50.86
7268;BME280;3675;43.276;27.962;2023-12-29T08:05:29;98445.75;;;10.57;50.54
7268;BME280;3675;43.276;27.962;2023-12-29T08:11:42;98445.00;;;10.97;49.86
7268;BME280;3675;43.276;27.962;2023-12-29T08:14:24;98452.72;;;11.19;49.42
7268;BME280;3675;43.276;27.962;2023-12-29T08:17:21;98449.28;;;11.39;48.65
7268;BME280;3675;43.276;27.962;2023-12-29T08:20:00;98450.81;;;11.63;48.34
7268;BME280;3675;43.276;27.962;2023-12-29T08:23:33;98438.84;;;11.81;47.15
7268;BME280;3675;43.276;27.962;2023-12-29T08:26:50;98460.78;;;12.11;46.22
7268;BME280;3675;43.276;27.962;2023-12-29T08:29:41;98444.59;;;12.25;45.66
7268;BME280;3675;43.276;27.962;2023-12-29T08:35:43;98444.06;;;12.73;44.50
7268;BME280;3675;43.276;27.962;2023-12-29T08:41:37;98441.75;;;13.20;43.44
7268;BME280;3675;43.276;27.962;2023-12-29T08:44:16;98432.97;;;13.22;43.00
7268;BME280;3675;43.276;27.962;2023-12-29T08:46:51;98435.22;;;13.45;42.76
7268;BME280;3675;43.276;27.962;2023-12-29T08:50:11;98439.59;;;13.62;42.59
7268;BME280;3675;43.276;27.962;2023-12-29T08:53:24;98431.69;;;13.64;41.98
7268;BME280;3675;43.276;27.962;2023-12-29T08:56:12;98430.13;;;13.77;42.13
7268;BME280;3675;43.276;27.962;2023-12-29T08:59:38;98426.06;;;13.88;42.48
7268;BME280;3675;43.276;27.962;2023-12-29T09:02:36;98424.00;;;14.11;41.59
7268;BME280;3675;43.276;27.962;2023-12-29T09:05:52;98438.16;;;14.38;41.67
7268;BME280;3675;43.276;27.962;2023-12-29T09:09:21;98432.34;;;14.64;41.09
7268;BME280;3675;43.276;27.962;2023-12-29T09:12:07;98439.19;;;14.81;40.68
7268;BME280;3675;43.276;27.962;2023-12-29T09:15:10;98421.25;;;15.06;40.49
7268;BME280;3675;43.276;27.962;2023-12-29T09:18:02;98419.78;;;15.16;39.39
7268;BME280;3675;43.276;27.962;2023-12-29T09:21:06;98416.91;;;15.21;39.66
7268;BME280;3675;43.276;27.962;2023-12-29T09:24:00;98411.53;;;15.24;39.23
7268;BME280;3675;43.276;27.962;2023-12-29T09:27:01;98417.75;;;15.51;39.02
7268;BME280;3675;43.276;27.962;2023-12-29T09:29:41;98414.59;;;15.60;38.88
7268;BME280;3675;43.276;27.962;2023-12-29T09:42:56;98402.19;;;16.06;37.02
7268;BME280;3675;43.276;27.962;2023-12-29T09:53:18;98391.38;;;16.12;37.24
7268;BME280;3675;43.276;27.962;2023-12-29T10:10:37;98378.47;;;16.65;36.40
7268;BME280;3675;43.276;27.962;2023-12-29T10:14:00;98370.84;;;16.61;36.16
7268;BME280;3675;43.276;27.962;2023-12-29T10:17:27;98379.31;;;16.65;36.02
7268;BME280;3675;43.276;27.962;2023-12-29T10:20:25;98373.41;;;16.76;35.92
7268;BME280;3675;43.276;27.962;2023-12-29T10:27:47;98365.50;;;16.90;35.49
7268;BME280;3675;43.276;27.962;2023-12-29T10:30:51;98370.34;;;17.21;35.07
7268;BME280;3675;43.276;27.962;2023-12-29T10:40:12;98378.22;;;17.59;34.08
7268;BME280;3675;43.276;27.962;2023-12-29T10:42:55;98371.91;;;17.49;33.89
7268;BME280;3675;43.276;27.962;2023-12-29T10:48:27;98370.06;;;17.64;34.18
7268;BME280;3675;43.276;27.962;2023-12-29T10:51:02;98359.88;;;17.84;35.08
7268;BME280;3675;43.276;27.962;2023-12-29T10:53:35;98367.94;;;17.81;34.99
7268;BME280;3675;43.276;27.962;2023-12-29T10:56:17;98358.63;;;17.90;35.10
7268;BME280;3675;43.276;27.962;2023-12-29T10:59:00;98362.94;;;17.78;34.82
7268;BME280;3675;43.276;27.962;2023-12-29T11:01:38;98356.56;;;17.70;34.93
7268;BME280;3675;43.276;27.962;2023-12-29T11:04:11;98362.97;;;17.66;34.89
7268;BME280;3675;43.276;27.962;2023-12-29T11:06:46;98354.59;;;17.61;35.36
7268;BME280;3675;43.276;27.962;2023-12-29T11:30:41;98340.66;;;16.16;39.46
7268;BME280;3675;43.276;27.962;2023-12-29T11:34:47;98327.72;;;15.74;39.80
7268;BME280;3675;43.276;27.962;2023-12-29T11:38:54;98339.19;;;15.57;41.25
7268;BME280;3675;43.276;27.962;2023-12-29T11:42:52;98337.84;;;15.36;40.96
7268;BME280;3675;43.276;27.962;2023-12-29T11:53:12;98325.53;;;15.10;41.99
7268;BME280;3675;43.276;27.962;2023-12-29T11:57:36;98333.69;;;14.90;42.82
7268;BME280;3675;43.276;27.962;2023-12-29T12:05:08;98327.06;;;14.84;42.89
7268;BME280;3675;43.276;27.962;2023-12-29T12:11:47;98325.72;;;14.63;43.94
7268;BME280;3675;43.276;27.962;2023-12-29T12:14:47;98320.25;;;14.67;43.63
7268;BME280;3675;43.276;27.962;2023-12-29T12:17:32;98324.88;;;14.62;43.86
7268;BME280;3675;43.276;27.962;2023-12-29T12:20:16;98319.59;;;14.64;44.43
7268;BME280;3675;43.276;27.962;2023-12-29T12:22:51;98312.06;;;14.59;44.02
7268;BME280;3675;43.276;27.962;2023-12-29T12:25:32;98312.22;;;14.56;43.84
7268;BME280;3675;43.276;27.962;2023-12-29T12:28:09;98306.72;;;14.47;43.78
7268;BME280;3675;43.276;27.962;2023-12-29T12:30:43;98312.72;;;14.47;44.46
7268;BME280;3675;43.276;27.962;2023-12-29T12:33:34;98302.63;;;14.43;44.08
7268;BME280;3675;43.276;27.962;2023-12-29T12:36:11;98304.75;;;14.34;45.25
7268;BME280;3675;43.276;27.962;2023-12-29T12:38:52;98303.78;;;14.37;44.83
7268;BME280;3675;43.276;27.962;2023-12-29T12:41:24;98304.94;;;14.31;44.73
7268;BME280;3675;43.276;27.962;2023-12-29T12:44:05;98304.63;;;14.22;45.17
7268;BME280;3675;43.276;27.962;2023-12-29T12:46:44;98304.47;;;14.25;45.16
7268;BME280;3675;43.276;27.962;2023-12-29T12:49:18;98298.56;;;14.21;45.00
7268;BME280;3675;43.276;27.962;2023-12-29T12:51:54;98307.47;;;14.17;44.30
7268;BME280;3675;43.276;27.962;2023-12-29T12:54:37;98286.94;;;14.13;44.95
7268;BME280;3675;43.276;27.962;2023-12-29T12:58:05;98305.91;;;14.15;44.25
7268;BME280;3675;43.276;27.962;2023-12-29T13:00:45;98308.50;;;14.15;44.58
7268;BME280;3675;43.276;27.962;2023-12-29T13:03:19;98299.84;;;14.14;44.86
7268;BME280;3675;43.276;27.962;2023-12-29T13:05:52;98299.94;;;14.13;44.99
7268;BME280;3675;43.276;27.962;2023-12-29T13:08:29;98303.81;;;14.06;44.98
7268;BME280;3675;43.276;27.962;2023-12-29T13:11:04;98309.75;;;14.08;44.91
7268;BME280;3675;43.276;27.962;2023-12-29T13:13:38;98306.22;;;14.09;45.18
7268;BME280;3675;43.276;27.962;2023-12-29T13:16:12;98305.50;;;14.07;45.17
7268;BME280;3675;43.276;27.962;2023-12-29T13:19:18;98310.75;;;14.05;44.94
7268;BME280;3675;43.276;27.962;2023-12-29T13:21:55;98312.69;;;14.02;45.43
7268;BME280;3675;43.276;27.962;2023-12-29T13:24:30;98319.59;;;14.03;44.49
7268;BME280;3675;43.276;27.962;2023-12-29T13:27:06;98315.31;;;14.02;44.80
7268;BME280;3675;43.276;27.962;2023-12-29T13:29:46;98312.44;;;13.90;45.21
7268;BME280;3675;43.276;27.962;2023-12-29T13:32:27;98312.63;;;13.87;45.04
7268;BME280;3675;43.276;27.962;2023-12-29T13:35:11;98310.78;;;13.89;45.12
7268;BME280;3675;43.276;27.962;2023-12-29T13:37:53;98317.41;;;13.79;45.20
7268;BME280;3675;43.276;27.962;2023-12-29T13:40:39;98311.59;;;13.74;45.51
7268;BME280;3675;43.276;27.962;2023-12-29T13:43:28;98315.03;;;13.75;45.63
7268;BME280;3675;43.276;27.962;2023-12-29T13:46:20;98322.41;;;13.67;45.56
7268;BME280;3675;43.276;27.962;2023-12-29T13:48:56;98323.34;;;13.66;45.70
7268;BME280;3675;43.276;27.962;2023-12-29T13:51:32;98326.50;;;13.55;45.99
7268;BME280;3675;43.276;27.962;2023-12-29T13:54:06;98325.81;;;13.52;46.35
7268;BME280;3675;43.276;27.962;2023-12-29T13:56:54;98333.34;;;13.40;45.81
7268;BME280;3675;43.276;27.962;2023-12-29T13:59:37;98335.00;;;13.41;45.73
7268;BME280;3675;43.276;27.962;2023-12-29T14:02:23;98343.44;;;13.29;45.67
7268;BME280;3675;43.276;27.962;2023-12-29T14:05:18;98341.50;;;13.17;46.22
7268;BME280;3675;43.276;27.962;2023-12-29T14:07:54;98338.91;;;13.17;46.16
7268;BME280;3675;43.276;27.962;2023-12-29T14:10:30;98340.06;;;13.10;45.70
7268;BME280;3675;43.276;27.962;2023-12-29T14:13:08;98341.31;;;13.03;45.88
7268;BME280;3675;43.276;27.962;2023-12-29T14:15:42;98345.91;;;12.98;46.01
7268;BME280;3675;43.276;27.962;2023-12-29T14:18:39;98344.59;;;12.89;45.87
7268;BME280;3675;43.276;27.962;2023-12-29T14:21:26;98344.69;;;12.88;45.96
7268;BME280;3675;43.276;27.962;2023-12-29T14:24:01;98334.56;;;12.83;45.99
7268;BME280;3675;43.276;27.962;2023-12-29T14:26:44;98334.06;;;12.75;46.27
7268;BME280;3675;43.276;27.962;2023-12-29T14:29:28;98333.47;;;12.70;46.10
7268;BME280;3675;43.276;27.962;2023-12-29T14:32:15;98334.53;;;12.66;45.95
7268;BME280;3675;43.276;27.962;2023-12-29T14:34:48;98335.19;;;12.52;46.42
7268;BME280;3675;43.276;27.962;2023-12-29T14:37:23;98329.34;;;12.49;46.05
7268;BME280;3675;43.276;27.962;2023-12-29T14:40:05;98338.19;;;12.45;46.28
7268;BME280;3675;43.276;27.962;2023-12-29T14:42:47;98331.16;;;12.30;46.46
7268;BME280;3675;43.276;27.962;2023-12-29T14:45:24;98346.16;;;12.23;46.51
7268;BME280;3675;43.276;27.962;2023-12-29T14:48:02;98342.03;;;12.19;46.56
7268;BME280;3675;43.276;27.962;2023-12-29T14:50:45;98343.47;;;12.07;46.73
7268;BME280;3675;43.276;27.962;2023-12-29T14:53:33;98349.53;;;12.06;46.98
7268;BME280;3675;43.276;27.962;2023-12-29T14:56:09;98352.56;;;11.97;47.05
7268;BME280;3675;43.276;27.962;2023-12-29T14:58:41;98353.00;;;11.88;47.23
7268;BME280;3675;43.276;27.962;2023-12-29T15:01:21;98349.81;;;11.82;47.69
7268;BME280;3675;43.276;27.962;2023-12-29T15:03:55;98361.19;;;11.79;48.12
7268;BME280;3675;43.276;27.962;2023-12-29T15:06:29;98363.06;;;11.76;47.94
7268;BME280;3675;43.276;27.962;2023-12-29T15:09:01;98365.72;;;11.74;47.91
7268;BME280;3675;43.276;27.962;2023-12-29T15:11:35;98359.13;;;11.67;47.96
7268;BME280;3675;43.276;27.962;2023-12-29T15:14:10;98361.72;;;11.67;47.95
7268;BME280;3675;43.276;27.962;2023-12-29T15:16:47;98359.53;;;11.58;48.26
7268;BME280;3675;43.276;27.962;2023-12-29T15:19:24;98363.72;;;11.60;48.10
7268;BME280;3675;43.276;27.962;2023-12-29T15:22:02;98362.31;;;11.53;48.26
7268;BME280;3675;43.276;27.962;2023-12-29T15:24:47;98366.59;;;11.54;47.96
7268;BME280;3675;43.276;27.962;2023-12-29T15:27:28;98370.28;;;11.49;48.27
7268;BME280;3675;43.276;27.962;2023-12-29T15:30:10;98370.34;;;11.47;48.45
7268;BME280;3675;43.276;27.962;2023-12-29T15:32:55;98370.56;;;11.43;48.82
7268;BME280;3675;43.276;27.962;2023-12-29T15:35:27;98377.47;;;11.42;48.76
7268;BME280;3675;43.276;27.962;2023-12-29T15:38:01;98383.84;;;11.35;49.15
7268;BME280;3675;43.276;27.962;2023-12-29T15:40:32;98393.34;;;11.35;48.99
7268;BME280;3675;43.276;27.962;2023-12-29T15:43:05;98390.50;;;11.20;49.39
7268;BME280;3675;43.276;27.962;2023-12-29T15:45:38;98394.66;;;11.24;49.48
7268;BME280;3675;43.276;27.962;2023-12-29T15:48:12;98406.81;;;11.22;49.37
7268;BME280;3675;43.276;27.962;2023-12-29T15:50:45;98399.31;;;11.16;49.68
7268;BME280;3675;43.276;27.962;2023-12-29T15:53:17;98402.03;;;11.13;49.75
7268;BME280;3675;43.276;27.962;2023-12-29T15:55:50;98398.03;;;11.06;49.95
7268;BME280;3675;43.276;27.962;2023-12-29T15:58:25;98404.03;;;11.07;49.90
7268;BME280;3675;43.276;27.962;2023-12-29T16:00:57;98404.09;;;11.05;50.14
7268;BME280;3675;43.276;27.962;2023-12-29T16:03:35;98405.25;;;10.98;50.24
7268;BME280;3675;43.276;27.962;2023-12-29T16:06:26;98405.34;;;10.97;50.42
7268;BME280;3675;43.276;27.962;2023-12-29T16:08:58;98397.50;;;10.98;50.33
7268;BME280;3675;43.276;27.962;2023-12-29T16:11:29;98404.59;;;10.93;50.45
7268;BME280;3675;43.276;27.962;2023-12-29T16:14:04;98408.31;;;10.88;50.61
7268;BME280;3675;43.276;27.962;2023-12-29T16:16:40;98404.22;;;10.82;50.83
7268;BME280;3675;43.276;27.962;2023-12-29T16:19:18;98397.34;;;10.81;50.89
7268;BME280;3675;43.276;27.962;2023-12-29T16:21:56;98392.25;;;10.79;50.91
7268;BME280;3675;43.276;27.962;2023-12-29T16:24:32;98395.94;;;10.74;50.97
7268;BME280;3675;43.276;27.962;2023-12-29T16:27:08;98392.38;;;10.76;50.74
7268;BME280;3675;43.276;27.962;2023-12-29T16:29:40;98394.91;;;10.78;50.65
7268;BME280;3675;43.276;27.962;2023-12-29T16:32:19;98389.69;;;10.79;50.44
7268;BME280;3675;43.276;27.962;2023-12-29T16:34:58;98392.25;;;10.79;50.56
7268;BME280;3675;43.276;27.962;2023-12-29T16:37:38;98394.75;;;10.81;50.57
7268;BME280;3675;43.276;27.962;2023-12-29T16:40:10;98390.56;;;10.78;50.74
7268;BME280;3675;43.276;27.962;2023-12-29T16:42:48;98383.75;;;10.76;50.85
7268;BME280;3675;43.276;27.962;2023-12-29T16:45:22;98384.78;;;10.72;51.05
7268;BME280;3675;43.276;27.962;2023-12-29T16:47:58;98376.19;;;10.71;50.95
7268;BME280;3675;43.276;27.962;2023-12-29T16:50:37;98375.56;;;10.66;51.21
7268;BME280;3675;43.276;27.962;2023-12-29T16:53:13;98379.34;;;10.58;51.47
7268;BME280;3675;43.276;27.962;2023-12-29T16:55:53;98382.94;;;10.54;51.79
7268;BME280;3675;43.276;27.962;2023-12-29T16:58:25;98382.13;;;10.53;51.85
7268;BME280;3675;43.276;27.962;2023-12-29T17:01:02;98379.59;;;10.52;51.92
7268;BME280;3675;43.276;27.962;2023-12-29T17:03:33;98387.53;;;10.47;51.85
7268;BME280;3675;43.276;27.962;2023-12-29T17:06:07;98392.56;;;10.50;51.85
7268;BME280;3675;43.276;27.962;2023-12-29T17:08:38;98380.44;;;10.52;51.99
7268;BME280;3675;43.276;27.962;2023-12-29T17:11:09;98384.16;;;10.45;51.96
7268;BME280;3675;43.276;27.962;2023-12-29T17:13:40;98387.78;;;10.41;52.20
7268;BME280;3675;43.276;27.962;2023-12-29T17:16:14;98388.56;;;10.43;51.94
7268;BME280;3675;43.276;27.962;2023-12-29T17:18:50;98387.53;;;10.47;52.11
7268;BME280;3675;43.276;27.962;2023-12-29T17:21:24;98386.81;;;10.44;51.88
7268;BME280;3675;43.276;27.962;2023-12-29T17:23:58;98396.13;;;10.48;51.80
7268;BME280;3675;43.276;27.962;2023-12-29T17:26:32;98391.72;;;10.50;51.83
7268;BME280;3675;43.276;27.962;2023-12-29T17:29:06;98395.47;;;10.43;52.17
7268;BME280;3675;43.276;27.962;2023-12-29T17:31:40;98395.47;;;10.43;51.95
7268;BME280;3675;43.276;27.962;2023-12-29T17:34:18;98394.69;;;10.41;51.91
7268;BME280;3675;43.276;27.962;2023-12-29T17:36:53;98395.59;;;10.40;51.94
7268;BME280;3675;43.276;27.962;2023-12-29T17:39:35;98376.94;;;10.31;52.10
7268;BME280;3675;43.276;27.962;2023-12-29T17:42:08;98393.97;;;10.37;51.94
7268;BME280;3675;43.276;27.962;2023-12-29T17:44:40;98400.09;;;10.34;51.95
7268;BME280;3675;43.276;27.962;2023-12-29T17:47:13;98396.84;;;10.29;52.28
7268;BME280;3675;43.276;27.962;2023-12-29T17:49:50;98405.63;;;10.25;52.47
7268;BME280;3675;43.276;27.962;2023-12-29T17:52:27;98393.78;;;10.20;52.24
7268;BME280;3675;43.276;27.962;2023-12-29T17:54:59;98396.41;;;10.18;52.51
7268;BME280;3675;43.276;27.962;2023-12-29T17:57:31;98402.75;;;10.10;52.90
7268;BME280;3675;43.276;27.962;2023-12-29T18:00:05;98396.69;;;10.11;52.79